Cincinnati Municipal Airport Lunken Field
KLUK : rendu visible

Aérodrome :











RETROUVEZ-NOUS SUR...

 
LOGIN :

S'inscrire | Disclaimer

   EN    FR    IT 

 









Légende :    VFR   VFR Marginal   IFR   IFR Intensif   IFR Très Intensif
Visi : 
Plafond : 
>= 8 km
>= 3000ft
5 à 8 km
1000 à 3000 ft
1500m à 5 km
500 à 1000 ft
800 à 1500m
200 à 500 ft
< 800m
< 200 ft
Symboles :   Orages  Brouillard  Fortes neiges  Fortes précipitations  Vent > 20 kt






- Altitude de l'aérodrome : 483 ft
- Code IATA : LUK


KLUK - Cincinnati Municipal Lunken Field

DERNIER METAR :
  • 150853Z AUTO 00000KT 10SM R21L/5000VP6000FT CLR 19/18 A3006 RMK AO2 SLP175 T01940183 58004

METARs EXPIRÉS :
  • 150753Z AUTO 00000KT 7SM CLR 19/18 A3007 RMK AO2 SLP177 T01940183
  • 150653Z AUTO 00000KT 9SM CLR 19/18 A3008 RMK AO2 SLP181 T01940183

TAF KLUK
Valide du 15 à 06h jusqu'au 16 à 06h UTC


150538Z 1506/1606 00000KT P6SM SCT250
TEMPO 1510/1511 3SM BR
FM151300 17005KT P6SM SCT250
FIR KZID / Amérique du Nord



MET'MAP, la Météo Aéronautique d'un coup d'oeil ! - Copyright ORBIFLY Décembre 2007 - Disclaimer

ORBIFLY MET'MAP TEAM :

Programmation & Développement : Alexandra Zaïnal
Sur une idée originale de : Baudouin d'Aumeries
Assistance à la programmation : Marc-Olivier Méhu
Soutien technique & logistique : Manuel Goepfert

Contact : metmap@orbifly.com




SOURCES & CREDITS :

   NOAA       Earth
Advisory